createdAt,value
2018-04-10T00:00:58.275Z,17.37
2018-04-10T00:03:27.663Z,17.31
2018-04-10T00:05:56.263Z,17.28
2018-04-10T00:08:25.651Z,17.28
2018-04-10T00:10:54.102Z,17.26
2018-04-10T00:13:22.418Z,17.24
2018-04-10T00:15:51.555Z,17.16
2018-04-10T00:18:19.942Z,17.12
2018-04-10T00:20:48.526Z,17.10
2018-04-10T00:23:17.147Z,17.06
2018-04-10T00:25:46.026Z,17.08
2018-04-10T00:28:14.415Z,17.09
2018-04-10T00:30:42.684Z,17.08
2018-04-10T00:33:11.005Z,17.10
2018-04-10T00:35:40.200Z,17.02
2018-04-10T00:38:09.381Z,17.03
2018-04-10T00:40:38.401Z,16.94
2018-04-10T00:43:06.860Z,16.92
2018-04-10T00:45:35.887Z,16.88
2018-04-10T00:48:04.307Z,16.80
2018-04-10T00:50:32.586Z,16.78
2018-04-10T00:53:14.525Z,16.76
2018-04-10T00:55:43.743Z,16.78
2018-04-10T00:58:12.218Z,16.78
2018-04-10T01:00:40.704Z,16.74
2018-04-10T01:03:09.160Z,16.72
2018-04-10T01:05:38.322Z,16.67
2018-04-10T01:08:06.619Z,16.63
2018-04-10T01:10:34.897Z,16.62
2018-04-10T01:13:03.231Z,16.58
2018-04-10T01:15:31.563Z,16.59
2018-04-10T01:18:00.537Z,16.58
2018-04-10T01:20:30.219Z,16.55
2018-04-10T01:22:58.494Z,16.60
2018-04-10T01:25:26.990Z,16.58
2018-04-10T01:27:55.516Z,16.56
2018-04-10T01:30:24.540Z,16.62
2018-04-10T01:32:53.171Z,16.57
2018-04-10T01:35:21.583Z,16.55
2018-04-10T01:37:49.931Z,16.49
2018-04-10T01:40:18.237Z,16.44
2018-04-10T01:42:46.686Z,16.43
2018-04-10T01:45:14.959Z,16.48
2018-04-10T01:47:43.258Z,16.44
2018-04-10T01:50:12.641Z,16.44
2018-04-10T01:52:40.950Z,16.40
2018-04-10T01:55:09.310Z,16.43
2018-04-10T01:57:38.514Z,16.37
2018-04-10T02:00:07.519Z,16.37
2018-04-10T02:02:36.930Z,16.37
2018-04-10T02:05:05.527Z,16.35
2018-04-10T02:07:34.089Z,16.29
2018-04-10T02:10:03.143Z,16.29
2018-04-10T02:12:31.394Z,16.26
2018-04-10T02:14:59.634Z,16.29
2018-04-10T02:17:51.952Z,16.24
2018-04-10T02:20:20.618Z,16.20
2018-04-10T02:22:48.833Z,16.24
2018-04-10T02:25:18.036Z,16.21
2018-04-10T02:27:47.290Z,16.21
2018-04-10T02:30:15.668Z,16.25
2018-04-10T02:32:44.047Z,16.25
2018-04-10T02:35:12.292Z,16.26
2018-04-10T02:37:40.567Z,16.23
2018-04-10T02:40:08.822Z,16.23
2018-04-10T02:42:38.058Z,16.19
2018-04-10T02:45:06.317Z,16.11
2018-04-10T02:47:35.056Z,16.12
2018-04-10T02:50:03.659Z,16.05
2018-04-10T02:52:32.624Z,16.01
2018-04-10T02:55:01.012Z,16.02
2018-04-10T02:57:29.490Z,15.96
2018-04-10T02:59:57.760Z,15.89
2018-04-10T03:02:26.033Z,15.86
2018-04-10T03:04:54.276Z,15.81
2018-04-10T03:07:22.900Z,15.71
2018-04-10T03:09:51.126Z,15.54
2018-04-10T03:12:19.652Z,15.42
2018-04-10T03:14:47.915Z,15.33
2018-04-10T03:17:16.202Z,15.33
2018-04-10T03:19:44.437Z,15.36
2018-04-10T03:22:12.812Z,15.41
2018-04-10T03:24:41.836Z,15.37
2018-04-10T03:27:10.108Z,15.34
2018-04-10T03:29:38.577Z,15.25
2018-04-10T03:32:07.108Z,15.29
2018-04-10T03:34:35.357Z,15.30
2018-04-10T03:37:03.766Z,15.31
2018-04-10T03:39:32.160Z,15.32
2018-04-10T03:42:00.388Z,15.36
2018-04-10T03:44:28.637Z,15.38
2018-04-10T03:46:56.882Z,15.39
2018-04-10T03:49:25.333Z,15.40
2018-04-10T03:51:53.670Z,15.37
2018-04-10T03:54:22.305Z,15.37
2018-04-10T03:56:50.605Z,15.37
2018-04-10T03:59:19.026Z,15.36
2018-04-10T04:01:47.634Z,15.33
2018-04-10T04:04:16.322Z,15.30
2018-04-10T04:06:44.594Z,15.22
2018-04-10T04:09:13.222Z,15.10
2018-04-10T04:11:42.523Z,15.05
2018-04-10T04:14:10.970Z,15.08
2018-04-10T04:17:42.461Z,15.13
2018-04-10T04:21:26.432Z,15.16
2018-04-10T04:23:55.469Z,15.15
2018-04-10T04:26:23.833Z,15.10
2018-04-10T04:28:52.510Z,15.11
2018-04-10T04:31:20.873Z,15.03
2018-04-10T04:33:50.111Z,15.07
2018-04-10T04:36:18.441Z,15.02
2018-04-10T04:38:46.912Z,14.93
2018-04-10T04:41:16.298Z,14.92
2018-04-10T04:43:44.973Z,14.98
2018-04-10T04:46:13.541Z,14.92
2018-04-10T04:48:42.125Z,14.95
2018-04-10T04:51:10.547Z,14.99
2018-04-10T04:53:39.933Z,15.01
2018-04-10T04:56:08.475Z,15.03
2018-04-10T04:58:36.935Z,15.07
2018-04-10T05:01:05.982Z,15.09
2018-04-10T05:03:34.430Z,15.09
2018-04-10T05:06:02.785Z,15.09
2018-04-10T05:08:31.141Z,15.15
2018-04-10T05:10:59.697Z,15.20
2018-04-10T05:13:28.178Z,15.23
2018-04-10T05:15:56.501Z,15.29
2018-04-10T05:18:25.590Z,15.39
2018-04-10T05:20:54.836Z,15.46
2018-04-10T05:23:23.317Z,15.47
2018-04-10T05:25:51.804Z,15.54
2018-04-10T05:28:20.370Z,15.61
2018-04-10T05:30:48.739Z,15.68
2018-04-10T05:33:17.265Z,15.75
2018-04-10T05:35:45.579Z,15.81
2018-04-10T05:38:16.426Z,15.96
2018-04-10T05:40:45.934Z,16.05
2018-04-10T05:43:15.010Z,16.13
2018-04-10T05:45:44.040Z,16.19
2018-04-10T05:48:12.302Z,16.21
2018-04-10T05:50:40.762Z,16.32
2018-04-10T05:53:09.106Z,16.45
2018-04-10T05:55:37.434Z,16.52
2018-04-10T05:58:06.844Z,16.55
2018-04-10T06:00:36.062Z,16.53
2018-04-10T06:03:04.450Z,16.49
2018-04-10T06:05:33.052Z,16.48
2018-04-10T06:08:01.516Z,16.53
2018-04-10T06:10:30.210Z,16.50
2018-04-10T06:13:05.109Z,16.56
2018-04-10T06:15:33.401Z,16.54
2018-04-10T06:18:02.032Z,16.46
2018-04-10T06:20:30.390Z,16.44
2018-04-10T06:22:58.763Z,16.44
2018-04-10T06:25:27.090Z,16.43
2018-04-10T06:27:56.466Z,16.42
2018-04-10T06:30:24.937Z,16.52
2018-04-10T06:32:53.797Z,16.59
2018-04-10T06:35:22.569Z,16.68
2018-04-10T06:37:51.199Z,16.70
2018-04-10T06:40:19.851Z,16.73
2018-04-10T06:42:48.458Z,16.70
2018-04-10T06:45:16.889Z,16.80
2018-04-10T06:47:46.352Z,16.85
2018-04-10T06:50:15.693Z,16.94
2018-04-10T06:52:44.703Z,16.97
2018-04-10T06:55:13.046Z,17.02
2018-04-10T06:57:41.614Z,17.13
2018-04-10T07:00:09.930Z,17.20
2018-04-10T07:02:39.083Z,17.28
2018-04-10T07:05:07.696Z,17.38
2018-04-10T07:07:36.022Z,17.56
2018-04-10T07:10:04.379Z,17.64
2018-04-10T07:12:33.702Z,17.82
2018-04-10T07:15:02.226Z,17.96
2018-04-10T07:17:30.605Z,18.06
2018-04-10T07:19:59.274Z,18.12
2018-04-10T07:22:27.586Z,18.32
2018-04-10T07:24:57.039Z,18.43
2018-04-10T07:27:25.315Z,18.62
2018-04-10T07:29:53.765Z,18.73
2018-04-10T07:32:22.777Z,18.79
2018-04-10T07:34:51.102Z,19.02
2018-04-10T07:37:19.656Z,19.17
2018-04-10T07:39:48.089Z,19.28
2018-04-10T07:42:17.381Z,19.32
2018-04-10T07:44:45.645Z,19.38
2018-04-10T07:47:14.227Z,19.38
2018-04-10T07:49:42.682Z,19.28
2018-04-10T07:52:11.044Z,19.45
2018-04-10T07:54:39.566Z,19.50
2018-04-10T07:57:07.870Z,19.62
2018-04-10T07:59:36.946Z,19.67
2018-04-10T08:02:05.221Z,19.73
2018-04-10T08:04:33.623Z,19.78
2018-04-10T08:07:02.721Z,19.77
2018-04-10T08:09:31.787Z,19.62
2018-04-10T08:12:00.298Z,19.59
2018-04-10T08:14:29.338Z,19.59
2018-04-10T08:16:57.659Z,19.64
2018-04-10T08:19:26.111Z,19.67
2018-04-10T08:21:54.385Z,19.77
2018-04-10T08:24:24.704Z,19.82
2018-04-10T08:26:52.966Z,19.84
2018-04-10T08:29:21.275Z,20.04
2018-04-10T08:31:56.574Z,20.19
2018-04-10T08:34:25.012Z,20.30
2018-04-10T08:36:53.315Z,20.36
2018-04-10T08:39:22.328Z,20.52
2018-04-10T08:41:50.611Z,20.58
2018-04-10T08:44:18.903Z,20.51
2018-04-10T08:46:47.266Z,20.49
2018-04-10T08:49:15.995Z,20.54
2018-04-10T08:51:44.425Z,20.71
2018-04-10T08:54:13.008Z,20.73
2018-04-10T08:56:41.490Z,20.63
2018-04-10T08:59:09.870Z,20.67
2018-04-10T09:01:38.377Z,20.71
2018-04-10T09:04:07.059Z,20.75
2018-04-10T09:06:35.555Z,20.72
2018-04-10T09:09:05.485Z,20.83
2018-04-10T09:11:33.915Z,20.87
2018-04-10T09:14:02.271Z,20.90
2018-04-10T09:16:31.472Z,20.99
2018-04-10T09:19:00.507Z,20.93
2018-04-10T09:21:28.947Z,20.85
2018-04-10T09:23:58.346Z,20.66
2018-04-10T09:26:27.562Z,20.69
2018-04-10T09:28:55.955Z,20.65
2018-04-10T09:31:24.414Z,20.70
2018-04-10T09:33:53.002Z,20.73
2018-04-10T09:36:21.584Z,20.83
2018-04-10T09:38:49.859Z,20.89
2018-04-10T09:41:18.406Z,21.02
2018-04-10T09:43:46.800Z,21.10
2018-04-10T09:46:15.214Z,21.09
2018-04-10T09:48:43.685Z,21.19
2018-04-10T09:51:12.378Z,21.02
2018-04-10T09:53:41.165Z,21.07
2018-04-10T09:56:09.555Z,21.10
2018-04-10T09:58:37.904Z,21.16
2018-04-10T10:01:06.937Z,21.17
2018-04-10T10:03:35.731Z,21.21
2018-04-10T10:06:04.110Z,21.26
2018-04-10T10:08:32.541Z,21.32
2018-04-10T10:11:00.970Z,21.29
2018-04-10T10:13:29.216Z,21.36
2018-04-10T10:15:58.314Z,21.38
2018-04-10T10:18:26.610Z,21.37
2018-04-10T10:20:55.523Z,21.34
2018-04-10T10:23:24.321Z,21.39
2018-04-10T10:25:52.793Z,21.43
2018-04-10T10:28:21.092Z,21.43
2018-04-10T10:30:49.380Z,21.50
2018-04-10T10:33:17.717Z,21.52
2018-04-10T10:35:46.152Z,21.51
2018-04-10T10:38:15.659Z,21.55
2018-04-10T10:40:44.945Z,21.56
2018-04-10T10:43:13.333Z,21.54
2018-04-10T10:45:42.837Z,21.49
2018-04-10T10:48:12.002Z,21.47
2018-04-10T10:50:40.566Z,21.50
2018-04-10T10:53:08.878Z,21.60
2018-04-10T10:55:37.323Z,21.61
2018-04-10T10:58:05.787Z,21.66
2018-04-10T11:00:34.225Z,21.64
2018-04-10T11:03:02.541Z,21.72
2018-04-10T11:05:30.957Z,21.55
2018-04-10T11:07:59.240Z,21.60
2018-04-10T11:10:27.614Z,21.61
2018-04-10T11:12:55.971Z,21.63
2018-04-10T11:15:24.316Z,21.64
2018-04-10T11:17:53.482Z,21.36
2018-04-10T11:20:22.455Z,21.31
2018-04-10T11:22:51.066Z,21.46
2018-04-10T11:25:19.365Z,21.59
2018-04-10T11:27:48.491Z,21.42
2018-04-10T11:30:17.277Z,21.44
2018-04-10T11:32:45.549Z,21.35
2018-04-10T11:35:14.201Z,21.05
2018-04-10T11:37:42.805Z,21.26
2018-04-10T11:40:11.926Z,21.30
2018-04-10T11:42:40.423Z,21.41
2018-04-10T11:45:08.932Z,21.43
2018-04-10T11:47:37.602Z,21.32
2018-04-10T11:50:06.249Z,21.68
2018-04-10T11:52:35.359Z,22.00
2018-04-10T11:55:03.925Z,22.17
2018-04-10T11:57:33.622Z,22.29
2018-04-10T12:00:02.770Z,22.31
2018-04-10T12:02:31.231Z,22.16
2018-04-10T12:04:59.609Z,22.29
2018-04-10T12:07:28.811Z,22.42
2018-04-10T12:09:57.196Z,22.48
2018-04-10T12:12:25.678Z,22.52
2018-04-10T12:14:54.037Z,22.55
2018-04-10T12:17:22.423Z,22.63
2018-04-10T12:19:51.070Z,22.73
2018-04-10T12:22:19.366Z,22.91
2018-04-10T12:24:48.526Z,23.09
2018-04-10T12:27:17.046Z,23.17
2018-04-10T12:29:46.311Z,23.09
2018-04-10T12:32:14.884Z,23.13
2018-04-10T12:34:43.259Z,23.25
2018-04-10T12:37:11.653Z,23.27
2018-04-10T12:39:40.513Z,22.85
2018-04-10T12:42:08.843Z,22.76
2018-04-10T12:44:38.612Z,22.50
2018-04-10T12:47:07.273Z,22.11
2018-04-10T12:49:35.766Z,21.85
2018-04-10T12:52:04.273Z,21.75
2018-04-10T12:54:32.876Z,21.62
2018-04-10T12:57:01.194Z,21.75
2018-04-10T12:59:29.577Z,21.84
2018-04-10T13:01:58.011Z,21.97
2018-04-10T13:04:26.811Z,22.10
2018-04-10T13:06:55.365Z,22.06
2018-04-10T13:09:23.906Z,22.08
2018-04-10T13:11:52.231Z,21.83
2018-04-10T13:14:20.857Z,21.54
2018-04-10T13:16:50.346Z,21.68
2018-04-10T13:19:18.643Z,21.64
2018-04-10T13:21:47.887Z,21.56
2018-04-10T13:24:17.165Z,21.61
2018-04-10T13:26:45.557Z,21.76
2018-04-10T13:29:14.191Z,21.81
2018-04-10T13:31:42.583Z,21.72
2018-04-10T13:34:11.862Z,21.58
2018-04-10T13:36:40.477Z,21.44
2018-04-10T13:39:09.606Z,21.61
2018-04-10T13:41:38.023Z,21.73
2018-04-10T13:44:06.602Z,21.87
2018-04-10T13:46:34.863Z,21.91
2018-04-10T13:49:03.150Z,21.74
2018-04-10T13:51:31.829Z,21.83
2018-04-10T13:54:01.067Z,22.06
2018-04-10T13:56:29.611Z,22.06
2018-04-10T13:58:57.946Z,22.34
2018-04-10T14:01:26.466Z,22.85
2018-04-10T14:03:54.958Z,23.39
2018-04-10T14:06:23.406Z,23.87
2018-04-10T14:08:52.501Z,24.09
2018-04-10T14:11:20.789Z,24.59
2018-04-10T14:13:49.844Z,24.41
2018-04-10T14:16:18.146Z,23.12
2018-04-10T14:18:46.437Z,22.83
2018-04-10T14:21:15.026Z,23.25
2018-04-10T14:23:45.105Z,23.31
2018-04-10T14:26:13.474Z,23.43
2018-04-10T14:28:41.965Z,23.27
2018-04-10T14:31:10.358Z,22.99
2018-04-10T14:33:45.392Z,22.93
2018-04-10T14:36:13.839Z,22.36
2018-04-10T14:38:42.222Z,22.62
2018-04-10T14:41:10.590Z,22.63
2018-04-10T14:43:39.044Z,22.52
2018-04-10T14:46:07.401Z,22.51
2018-04-10T14:48:36.598Z,22.41
2018-04-10T14:51:05.950Z,22.60
2018-04-10T14:53:34.531Z,22.84
2018-04-10T14:56:03.149Z,22.71
2018-04-10T14:58:31.661Z,22.63
2018-04-10T15:01:00.801Z,22.31
2018-04-10T15:03:29.114Z,22.31
2018-04-10T15:05:57.590Z,22.44
2018-04-10T15:08:25.957Z,22.71
2018-04-10T15:10:54.297Z,22.85
2018-04-10T15:13:22.675Z,22.76
2018-04-10T15:15:51.063Z,22.59
2018-04-10T15:18:19.691Z,22.26
2018-04-10T15:20:48.081Z,22.30
2018-04-10T15:23:17.325Z,22.18
2018-04-10T15:25:46.040Z,22.02
2018-04-10T15:28:15.583Z,21.94
2018-04-10T15:30:43.990Z,21.98
2018-04-10T15:33:12.497Z,21.97
2018-04-10T15:35:40.881Z,22.07
2018-04-10T15:38:09.276Z,22.08
2018-04-10T15:40:37.668Z,22.21
2018-04-10T15:43:06.906Z,22.28
2018-04-10T15:45:35.435Z,22.16
2018-04-10T15:48:04.079Z,22.09
2018-04-10T15:50:32.637Z,22.24
2018-04-10T15:53:01.005Z,22.23
2018-04-10T15:55:30.102Z,22.04
2018-04-10T15:57:59.341Z,22.14
2018-04-10T16:00:27.671Z,22.17
2018-04-10T16:02:57.041Z,22.11
2018-04-10T16:05:25.513Z,22.02
2018-04-10T16:07:53.897Z,21.93
2018-04-10T16:10:22.740Z,21.97
2018-04-10T16:12:51.401Z,21.85
2018-04-10T16:15:19.785Z,21.88
2018-04-10T16:17:49.039Z,21.89
2018-04-10T16:20:17.421Z,21.96
2018-04-10T16:22:46.017Z,21.94
2018-04-10T16:25:14.827Z,21.95
2018-04-10T16:27:43.961Z,22.03
2018-04-10T16:30:12.298Z,21.99
2018-04-10T16:32:41.519Z,21.88
2018-04-10T16:35:10.103Z,21.83
2018-04-10T16:37:38.617Z,21.76
2018-04-10T16:40:07.841Z,21.67
2018-04-10T16:42:36.258Z,21.60
2018-04-10T16:45:04.699Z,21.57
2018-04-10T16:47:33.333Z,21.48
2018-04-10T16:50:01.810Z,21.46
2018-04-10T16:52:30.425Z,21.41
2018-04-10T16:54:59.644Z,21.32
2018-04-10T16:57:28.553Z,21.33
2018-04-10T16:59:59.280Z,21.26
2018-04-10T17:02:29.942Z,21.31
2018-04-10T17:05:01.209Z,21.22
2018-04-10T17:07:35.426Z,21.17
2018-04-10T17:10:14.576Z,20.99
2018-04-10T17:12:44.265Z,20.98
2018-04-10T17:15:12.941Z,20.91
2018-04-10T17:17:41.446Z,20.92
2018-04-10T17:20:09.993Z,20.91
2018-04-10T17:22:40.092Z,20.86
2018-04-10T17:25:11.113Z,20.94
2018-04-10T17:27:39.569Z,20.83
2018-04-10T17:30:08.565Z,20.84
2018-04-10T17:32:37.022Z,20.73
2018-04-10T17:35:05.450Z,20.74
2018-04-10T17:37:33.971Z,20.89
2018-04-10T17:40:10.600Z,20.77
2018-04-10T17:42:40.546Z,20.71
2018-04-10T17:45:10.704Z,20.75
2018-04-10T17:47:39.808Z,20.78
2018-04-10T17:50:08.258Z,20.62
2018-04-10T17:52:37.113Z,20.63
2018-04-10T17:55:12.778Z,20.56
2018-04-10T17:57:41.199Z,20.51
2018-04-10T18:00:10.332Z,20.38
2018-04-10T18:02:39.071Z,20.41
2018-04-10T18:05:07.676Z,20.45
2018-04-10T18:07:37.306Z,20.37
2018-04-10T18:10:06.166Z,20.32
2018-04-10T18:12:34.523Z,20.27
2018-04-10T18:15:03.100Z,20.35
2018-04-10T18:17:33.561Z,20.38
2018-04-10T18:20:02.017Z,20.30
2018-04-10T18:22:31.172Z,20.26
2018-04-10T18:25:01.109Z,20.18
2018-04-10T18:27:29.508Z,20.25
2018-04-10T18:29:58.305Z,20.18
2018-04-10T18:32:26.753Z,20.12
2018-04-10T18:34:55.161Z,20.14
2018-04-10T18:37:23.742Z,20.07
2018-04-10T18:39:52.234Z,20.13
2018-04-10T18:42:20.789Z,20.07
2018-04-10T18:44:49.241Z,20.04
2018-04-10T18:47:17.628Z,20.01
2018-04-10T18:49:46.027Z,20.02
2018-04-10T18:52:14.368Z,20.04
2018-04-10T18:54:42.765Z,19.96
2018-04-10T18:57:12.133Z,19.98
2018-04-10T18:59:40.747Z,19.87
2018-04-10T19:02:09.911Z,19.84
2018-04-10T19:04:38.369Z,19.73
2018-04-10T19:07:06.893Z,19.67
2018-04-10T19:09:36.244Z,19.64
2018-04-10T19:12:04.770Z,19.58
2018-04-10T19:14:33.525Z,19.52
2018-04-10T19:17:01.950Z,19.45
2018-04-10T19:19:30.450Z,19.36
2018-04-10T19:21:59.019Z,19.30
2018-04-10T19:24:28.304Z,19.14
2018-04-10T19:26:56.763Z,18.81
2018-04-10T19:29:25.187Z,18.51
2018-04-10T19:31:53.643Z,18.31
2018-04-10T19:34:22.074Z,18.35
2018-04-10T19:36:50.487Z,18.26
2018-04-10T19:39:18.911Z,18.04
2018-04-10T19:41:48.135Z,17.90
2018-04-10T19:44:16.530Z,17.68
2018-04-10T19:46:44.880Z,17.64
2018-04-10T19:49:13.316Z,17.67
2018-04-10T19:51:41.814Z,17.63
2018-04-10T19:54:11.175Z,17.65
2018-04-10T19:56:39.539Z,17.59
2018-04-10T19:59:07.960Z,17.20
2018-04-10T20:01:36.637Z,16.84
2018-04-10T20:04:05.411Z,16.21
2018-04-10T20:06:34.360Z,16.12
2018-04-10T20:09:03.484Z,16.05
2018-04-10T20:11:32.112Z,16.06
2018-04-10T20:14:00.737Z,16.09
2018-04-10T20:16:29.524Z,16.12
2018-04-10T20:18:58.145Z,16.24
2018-04-10T20:21:26.729Z,16.17
2018-04-10T20:23:55.216Z,16.28
2018-04-10T20:26:30.389Z,16.17
2018-04-10T20:28:58.885Z,16.18
2018-04-10T20:31:27.461Z,16.14
2018-04-10T20:33:56.683Z,16.21
2018-04-10T20:36:25.262Z,16.16
2018-04-10T20:38:53.813Z,16.19
2018-04-10T20:41:23.079Z,16.16
2018-04-10T20:43:51.752Z,16.22
2018-04-10T20:46:20.218Z,16.12
2018-04-10T20:48:48.763Z,16.16
2018-04-10T20:51:18.078Z,16.20
2018-04-10T20:53:46.579Z,16.23
2018-04-10T20:56:15.095Z,16.26
2018-04-10T20:58:43.677Z,16.17
2018-04-10T21:01:12.257Z,16.21
2018-04-10T21:03:40.982Z,16.15
2018-04-10T21:06:10.109Z,16.25
2018-04-10T21:08:38.614Z,16.34
2018-04-10T21:11:07.150Z,16.39
2018-04-10T21:13:35.738Z,16.38
2018-04-10T21:16:04.387Z,16.43
2018-04-10T21:18:32.846Z,16.44
2018-04-10T21:21:01.443Z,16.41
2018-04-10T21:23:29.919Z,16.42
2018-04-10T21:25:58.396Z,16.42
2018-04-10T21:28:26.885Z,16.38
2018-04-10T21:30:55.394Z,16.24
2018-04-10T21:33:24.602Z,16.19
2018-04-10T21:35:53.808Z,16.17
2018-04-10T21:38:22.257Z,16.17
2018-04-10T21:40:51.597Z,16.11
2018-04-10T21:43:24.732Z,15.96
2018-04-10T21:46:00.192Z,15.94
2018-04-10T21:48:28.743Z,15.96
2018-04-10T21:50:57.222Z,15.94
2018-04-10T21:53:25.833Z,15.97
2018-04-10T21:55:54.348Z,15.97
2018-04-10T21:58:22.815Z,15.80
2018-04-10T22:00:52.075Z,15.78
2018-04-10T22:03:20.505Z,15.97
2018-04-10T22:05:49.311Z,16.14
2018-04-10T22:08:18.009Z,16.20
2018-04-10T22:10:46.454Z,16.25
2018-04-10T22:13:15.596Z,16.23
2018-04-10T22:15:43.973Z,16.14
2018-04-10T22:18:12.464Z,16.12
2018-04-10T22:20:40.855Z,16.06
2018-04-10T22:23:09.406Z,16.06
2018-04-10T22:25:37.878Z,16.14
2018-04-10T22:28:06.329Z,16.12
2018-04-10T22:30:34.719Z,16.13
2018-04-10T22:33:03.105Z,16.06
2018-04-10T22:35:31.571Z,16.01
2018-04-10T22:38:00.024Z,16.00
2018-04-10T22:40:29.195Z,15.96
2018-04-10T22:42:57.669Z,15.97
2018-04-10T22:45:26.070Z,16.07
2018-04-10T22:47:55.159Z,16.07
2018-04-10T22:50:23.550Z,16.17
2018-04-10T22:52:51.920Z,16.19
2018-04-10T22:55:21.131Z,16.19
2018-04-10T22:57:50.518Z,16.19
2018-04-10T23:00:19.189Z,16.06
2018-04-10T23:02:47.607Z,16.07
2018-04-10T23:05:16.023Z,16.13
2018-04-10T23:07:44.425Z,16.09
2018-04-10T23:10:12.786Z,16.14
2018-04-10T23:12:41.168Z,15.99
2018-04-10T23:15:09.902Z,15.94
2018-04-10T23:17:39.023Z,15.87
2018-04-10T23:20:07.425Z,15.86
2018-04-10T23:22:35.894Z,15.72
2018-04-10T23:25:04.391Z,15.64
2018-04-10T23:27:32.999Z,15.76
2018-04-10T23:30:01.368Z,15.76
2018-04-10T23:32:29.938Z,15.74
2018-04-10T23:34:58.367Z,15.71
2018-04-10T23:37:26.736Z,15.71
2018-04-10T23:39:55.346Z,15.63
2018-04-10T23:42:24.508Z,15.63
2018-04-10T23:44:53.049Z,15.60
2018-04-10T23:47:21.523Z,15.56
2018-04-10T23:49:50.644Z,15.55
2018-04-10T23:52:18.963Z,15.61
2018-04-10T23:54:47.551Z,15.60
2018-04-10T23:57:16.019Z,15.58
2018-04-10T23:59:44.395Z,15.52
